Time;durP1;ratioP1;P1;durP2;ratioP2;P2;SDS_P1;SDS_P2;PMS_P1;PMS_P2;Temp;Humidity;BMP_temperature;BMP_pressure;BME280_temperature;BME280_humidity;BME280_pressure;Samples;Min_cycle;Max_cycle;Signal;HPM_P1;HPM_P2
2022/06/28 00:00:19;;;;;;;13.45;11.10;;;;;;;10.75;100.00;101934.13;1064158;27;20894;-78
2022/06/28 00:00:51;;;;;;;12.38;11.18;;;;;;;10.78;100.00;101936.41;1051612;28;20305;-78
2022/06/28 00:01:23;;;;;;;19.42;11.65;;;;;;;10.88;100.00;101937.91;1051517;28;20324;-78
2022/06/28 00:01:55;;;;;;;13.70;12.50;;;;;;;10.85;100.00;101933.78;1043731;28;20315;-78
2022/06/28 00:02:27;;;;;;;13.07;11.98;;;;;;;10.86;100.00;101932.78;1048640;28;20314;-78
2022/06/28 00:02:59;;;;;;;13.38;12.13;;;;;;;10.89;100.00;101928.88;1051777;28;20297;-78
2022/06/28 00:03:30;;;;;;;13.77;12.43;;;;;;;10.95;100.00;101930.78;1051731;28;20298;-78
2022/06/28 00:04:02;;;;;;;13.95;12.85;;;;;;;10.93;100.00;101936.31;1056055;28;20303;-78
2022/06/28 00:04:34;;;;;;;22.90;13.18;;;;;;;10.51;100.00;101931.81;1060301;27;20297;-79
2022/06/28 00:05:06;;;;;;;15.85;12.23;;;;;;;10.47;100.00;101926.03;1059032;28;20374;-78
2022/06/28 00:05:37;;;;;;;38.00;13.85;;;;;;;10.45;100.00;101927.25;1057392;28;20288;-78
2022/06/28 00:06:09;;;;;;;12.88;11.65;;;;;;;10.61;100.00;101926.16;1054583;28;20301;-78
2022/06/28 00:06:41;;;;;;;12.55;11.25;;;;;;;10.62;100.00;101928.63;1052250;28;20294;-78
2022/06/28 00:07:13;;;;;;;28.05;12.05;;;;;;;10.45;100.00;101929.91;1056628;28;20718;-78
2022/06/28 00:07:44;;;;;;;42.33;13.70;;;;;;;10.34;100.00;101931.22;1056723;28;20297;-79
2022/06/28 00:08:16;;;;;;;16.90;10.90;;;;;;;10.37;100.00;101930.00;1056841;27;20312;-78
2022/06/28 00:08:47;;;;;;;12.40;11.40;;;;;;;10.64;100.00;101929.28;1060611;27;20623;-78
2022/06/28 00:09:19;;;;;;;12.05;10.30;;;;;;;10.70;100.00;101931.19;1061258;27;20300;-78
2022/06/28 00:09:51;;;;;;;13.10;11.80;;;;;;;10.81;100.00;101933.34;1061325;27;20307;-78
2022/06/28 00:10:23;;;;;;;12.82;11.75;;;;;;;10.85;100.00;101933.78;1063652;27;20499;-78
2022/06/28 00:10:55;;;;;;;13.90;12.20;;;;;;;10.92;100.00;101928.50;1053757;28;20312;-78
2022/06/28 00:11:27;;;;;;;14.20;12.80;;;;;;;10.89;100.00;101929.72;1056469;28;20301;-78
2022/06/28 00:11:58;;;;;;;13.25;12.15;;;;;;;10.84;100.00;101932.13;1052150;28;20798;-78
2022/06/28 00:12:30;;;;;;;13.45;12.35;;;;;;;10.95;100.00;101931.59;1049418;28;20290;-78
2022/06/28 00:13:05;;;;;;;15.43;12.55;;;;;;;10.89;100.00;101928.88;1048670;28;20299;-78
2022/06/28 00:13:36;;;;;;;16.38;13.10;;;;;;;10.74;100.00;101932.47;1048570;28;20310;-78
2022/06/28 00:16:06;;;;;;;19.05;10.57;;;;;;;10.60;100.00;101919.19;1054689;27;20309;-78
2022/06/28 00:16:38;;;;;;;284.88;32.13;;;;;;;10.32;100.00;101921.75;1055591;28;20376;-78
2022/06/28 00:17:09;;;;;;;9.35;8.45;;;;;;;10.45;100.00;101916.59;1058919;27;20304;-79
2022/06/28 00:17:42;;;;;;;10.98;8.82;;;;;;;10.37;100.00;101922.00;1060630;27;20300;-79
2022/06/28 00:18:15;;;;;;;42.47;10.50;;;;;;;10.32;100.00;101921.75;1064132;27;20354;-79
2022/06/28 00:18:46;;;;;;;11.73;10.32;;;;;;;10.50;100.00;101925.66;1060826;27;20288;-78
2022/06/28 00:19:18;;;;;;;10.98;9.82;;;;;;;10.52;100.00;101926.28;1056658;28;20802;-79
2022/06/28 00:19:49;;;;;;;12.73;11.50;;;;;;;10.57;100.00;101923.06;1057563;28;20289;-83
2022/06/28 00:20:22;;;;;;;91.10;16.42;;;;;;;10.32;100.00;101921.75;1050802;28;20305;-83
2022/06/28 00:20:54;;;;;;;19.23;10.13;;;;;;;10.16;100.00;101923.63;1049158;28;20818;-83
2022/06/28 00:21:25;;;;;;;212.63;24.40;;;;;;;10.17;100.00;101925.25;1055285;28;20805;-83
2022/06/28 00:21:57;;;;;;;10.13;9.23;;;;;;;10.20;100.00;101927.59;1053083;28;20298;-83
2022/06/28 00:22:28;;;;;;;12.30;10.50;;;;;;;10.25;100.00;101923.53;1056954;27;20799;-83
2022/06/28 00:23:00;;;;;;;10.23;9.15;;;;;;;10.43;100.00;101924.78;1060823;27;20308;-83
2022/06/28 00:23:32;;;;;;;11.80;10.50;;;;;;;10.50;100.00;101919.50;1063108;27;20308;-84
2022/06/28 00:24:04;;;;;;;11.45;10.25;;;;;;;10.62;100.00;101922.47;1056020;28;20817;-84
2022/06/28 00:24:36;;;;;;;12.98;9.75;;;;;;;10.52;100.00;101922.81;1056380;28;20297;-84
2022/06/28 00:25:08;;;;;;;15.48;10.82;;;;;;;10.52;100.00;101922.81;1057427;27;20870;-84
2022/06/28 00:25:39;;;;;;;11.13;10.10;;;;;;;10.55;100.00;101930.41;1061277;27;20343;-83
2022/06/28 00:26:11;;;;;;;19.77;11.25;;;;;;;10.48;100.00;101921.53;1064850;27;20300;-84
2022/06/28 00:26:43;;;;;;;48.50;12.82;;;;;;;10.45;100.00;101927.25;1060452;27;20351;-84
2022/06/28 00:27:15;;;;;;;13.00;11.75;;;;;;;10.63;100.00;101924.97;1056751;28;20794;-83
2022/06/28 00:27:47;;;;;;;13.48;12.18;;;;;;;10.69;100.00;101926.06;1057487;27;20301;-83
2022/06/28 00:28:18;;;;;;;25.13;11.32;;;;;;;10.58;100.00;101922.03;1056893;27;20313;-83
2022/06/28 00:28:50;;;;;;;176.65;24.00;;;;;;;10.33;100.00;101926.91;1060644;27;20296;-84
2022/06/28 00:29:22;;;;;;;313.45;36.10;;;;;;;10.25;100.00;101921.69;1056360;28;20506;-83
2022/06/28 00:29:54;;;;;;;17.65;11.98;;;;;;;10.38;100.00;101915.69;1049295;28;20356;-83
2022/06/28 00:30:26;;;;;;;12.25;10.63;;;;;;;10.46;100.00;101921.72;1054963;28;20330;-83
2022/06/28 00:30:58;;;;;;;46.08;13.82;;;;;;;10.26;100.00;101922.50;1051901;28;20298;-83
2022/06/28 00:31:30;;;;;;;19.92;10.23;;;;;;;10.24;100.00;101914.72;1049495;28;20302;-84
2022/06/28 00:32:02;;;;;;;15.52;12.25;;;;;;;10.24;100.00;101919.22;1052358;28;20298;-84
2022/06/28 00:32:34;;;;;;;23.30;11.25;;;;;;;10.17;100.00;101924.44;1052514;28;20302;-84
2022/06/28 00:33:06;;;;;;;16.30;10.20;;;;;;;10.31;100.00;101926.25;1050425;28;20298;-83
2022/06/28 00:33:37;;;;;;;13.20;11.30;;;;;;;10.29;100.00;101916.81;1049942;28;20321;-84
2022/06/28 00:34:09;;;;;;;15.13;11.07;;;;;;;10.43;100.00;101918.63;1052511;28;20304;-84
2022/06/28 00:34:40;;;;;;;11.68;10.63;;;;;;;10.47;100.00;101917.22;1052869;27;20364;-83
2022/06/28 00:35:12;;;;;;;12.80;11.48;;;;;;;10.43;100.00;101922.09;1048269;28;20377;-84
2022/06/28 00:35:45;;;;;;;12.77;10.65;;;;;;;10.45;100.00;101921.91;1045400;28;20292;-84
2022/06/28 00:36:16;;;;;;;13.10;11.32;;;;;;;10.48;100.00;101918.88;1045940;28;20291;-84
2022/06/28 00:36:48;;;;;;;15.52;11.57;;;;;;;10.46;100.00;101924.41;1042279;28;20360;-84
2022/06/28 00:37:19;;;;;;;13.30;12.00;;;;;;;10.53;100.00;101919.13;1047928;28;20299;-84
2022/06/28 00:37:51;;;;;;;14.48;13.27;;;;;;;10.62;100.00;101915.31;1052669;28;20298;-84
2022/06/28 00:38:23;;;;;;;22.00;12.45;;;;;;;10.48;100.00;101916.22;1048778;28;20294;-84
2022/06/28 00:38:54;;;;;;;13.88;12.30;;;;;;;10.60;100.00;101917.34;1052070;28;20302;-84
2022/06/28 00:39:26;;;;;;;12.70;11.52;;;;;;;10.57;100.00;101915.06;1052327;28;20400;-83
2022/06/28 00:39:58;;;;;;;39.60;15.63;;;;;;;10.51;100.00;101927.31;1048257;28;20752;-83
2022/06/28 00:40:31;;;;;;;268.27;35.25;;;;;;;10.28;100.00;101920.50;1051817;27;20807;-84
2022/06/28 00:41:05;;;;;;;14.82;11.25;;;;;;;10.36;100.00;101923.84;1057119;27;20829;-83
2022/06/28 00:41:37;;;;;;;20.00;11.48;;;;;;;10.46;100.00;101918.25;1053613;28;20301;-83
2022/06/28 00:42:09;;;;;;;18.80;12.02;;;;;;;10.28;100.00;101920.50;1052322;28;20346;-83
2022/06/28 00:42:41;;;;;;;34.80;14.63;;;;;;;10.25;100.00;101921.69;1049224;28;20730;-84
2022/06/28 00:43:14;;;;;;;59.40;15.60;;;;;;;10.32;100.00;101922.59;1045766;28;20386;-84
2022/06/28 00:43:46;;;;;;;85.40;19.05;;;;;;;10.27;100.00;101922.31;1045734;28;20765;-84
2022/06/28 00:44:20;;;;;;;22.90;13.35;;;;;;;10.30;100.00;101919.28;1048547;28;20303;-84
2022/06/28 00:44:51;;;;;;;58.33;15.93;;;;;;;10.13;100.00;101918.63;1043688;28;20657;-83
2022/06/28 00:45:23;;;;;;;22.50;12.27;;;;;;;10.03;100.00;101918.13;1046398;28;20345;-84
2022/06/28 00:45:55;;;;;;;215.43;33.53;;;;;;;9.93;100.00;101922.91;1049522;28;20840;-83
2022/06/28 00:46:27;;;;;;;15.23;13.35;;;;;;;10.02;100.00;101919.13;1053580;28;20691;-84
2022/06/28 00:47:00;;;;;;;13.98;12.52;;;;;;;10.26;100.00;101919.84;1052516;28;20367;-83
2022/06/28 00:47:33;;;;;;;13.18;11.95;;;;;;;10.24;100.00;101919.22;1050627;28;20804;-83
2022/06/28 00:48:06;;;;;;;37.55;14.88;;;;;;;10.25;100.00;101920.88;1052263;28;20286;-83
2022/06/28 00:48:38;;;;;;;13.63;12.20;;;;;;;10.18;100.00;101916.25;1047673;28;21636;-83
2022/06/28 00:49:10;;;;;;;14.48;13.30;;;;;;;10.36;100.00;101912.38;1053259;28;20298;-83
2022/06/28 00:49:42;;;;;;;14.48;13.10;;;;;;;10.40;100.00;101913.63;1052054;28;20297;-83
2022/06/28 00:50:14;;;;;;;13.75;12.43;;;;;;;10.44;100.00;101920.28;1048409;28;20314;-83
2022/06/28 00:50:46;;;;;;;14.27;12.70;;;;;;;10.45;100.00;101911.25;1050226;28;20302;-84
2022/06/28 00:51:18;;;;;;;15.65;14.38;;;;;;;10.39;100.00;101917.31;1052201;28;20298;-84
2022/06/28 00:51:49;;;;;;;15.55;13.90;;;;;;;10.27;100.00;101924.16;1052527;28;20783;-83
2022/06/28 00:52:21;;;;;;;15.52;13.73;;;;;;;10.44;100.00;101920.28;1053484;27;20293;-84
2022/06/28 00:53:04;;;;;;;18.75;13.25;;;;;;;10.46;100.00;101918.25;1058575;27;20308;-83
2022/06/28 00:53:36;;;;;;;17.73;12.70;;;;;;;10.26;100.00;101919.84;1056382;28;20364;-84
2022/06/28 00:54:08;;;;;;;34.55;13.25;;;;;;;10.27;100.00;101925.00;1054329;28;20814;-83
2022/06/28 00:54:39;;;;;;;93.93;18.63;;;;;;;10.25;100.00;101920.88;1051123;28;20297;-84
2022/06/28 00:55:11;;;;;;;20.08;11.93;;;;;;;10.33;100.00;101923.41;1047225;28;20316;-83
2022/06/28 00:55:44;;;;;;;131.63;19.45;;;;;;;10.26;100.00;101919.84;1056929;27;20297;-84
2022/06/28 00:56:15;;;;;;;33.75;14.73;;;;;;;10.24;100.00;101924.53;1052738;28;20301;-84
2022/06/28 00:56:47;;;;;;;14.77;13.18;;;;;;;10.43;100.00;101919.44;1057297;27;20297;-83
2022/06/28 00:57:18;;;;;;;15.35;13.63;;;;;;;10.42;100.00;101922.31;1056383;28;20358;-83
2022/06/28 00:57:50;;;;;;;241.45;33.65;;;;;;;10.13;100.00;101929.28;1052861;27;20301;-84
2022/06/28 00:58:22;;;;;;;104.00;17.08;;;;;;;10.18;100.00;101920.75;1060920;27;20293;-83
2022/06/28 00:58:55;;;;;;;348.25;33.13;;;;;;;10.15;100.00;101916.63;1062434;27;20797;-83
2022/06/28 00:59:28;;;;;;;14.90;11.20;;;;;;;10.34;100.00;101925.06;1060592;27;20304;-84
2022/06/28 00:59:59;;;;;;;524.75;52.63;;;;;;;10.14;100.00;101922.16;1059659;27;20297;-84
2022/06/28 01:00:38;;;;;;;17.90;11.00;;;;;;;10.29;100.00;101922.13;1056331;28;20317;-84
2022/06/28 01:01:13;;;;;;;30.85;11.15;;;;;;;10.28;100.00;101923.16;1054150;28;20310;-84
2022/06/28 01:01:45;;;;;;;405.10;39.88;;;;;;;10.13;100.00;101923.97;1052184;28;20310;-84
2022/06/28 01:02:19;;;;;;;230.13;26.38;;;;;;;10.07;100.00;101923.88;1053463;28;20795;-83
2022/06/28 01:02:51;;;;;;;14.27;8.60;;;;;;;10.14;100.00;101919.50;1053435;28;20302;-84
2022/06/28 01:03:24;;;;;;;26.75;9.48;;;;;;;10.15;100.00;101927.28;1056361;28;20756;-84
2022/06/28 01:03:56;;;;;;;10.18;8.85;;;;;;;10.20;100.00;101916.06;1054057;28;20293;-83
2022/06/28 01:04:28;;;;;;;17.35;11.75;;;;;;;10.12;100.00;101924.97;1049475;28;21047;-84
2022/06/28 01:05:01;;;;;;;19.48;11.52;;;;;;;10.16;100.00;101928.94;1048067;28;20303;-85
2022/06/28 01:05:34;;;;;;;190.02;16.67;;;;;;;10.14;100.00;101925.63;1049509;28;20301;-84
2022/06/28 01:06:06;;;;;;;14.40;9.43;;;;;;;10.30;100.00;101923.78;1048629;28;20339;-84
2022/06/28 01:06:38;;;;;;;17.85;11.00;;;;;;;10.43;100.00;101923.94;1051121;28;20302;-84
2022/06/28 01:07:11;;;;;;;15.15;10.00;;;;;;;10.44;100.00;101925.59;1042298;28;20358;-84
2022/06/28 01:07:43;;;;;;;13.02;11.95;;;;;;;10.58;100.00;101927.38;1045633;28;20300;-84
2022/06/28 01:08:15;;;;;;;15.23;13.73;;;;;;;10.59;100.00;101929.03;1052632;28;20306;-84
2022/06/28 01:08:47;;;;;;;23.02;13.13;;;;;;;10.54;100.00;101931.44;1054988;28;20293;-84
2022/06/28 01:09:23;;;;;;;77.35;13.40;;;;;;;10.19;100.00;101925.91;1052128;28;20416;-84
2022/06/28 01:09:54;;;;;;;127.22;17.23;;;;;;;10.12;100.00;101932.97;1053291;28;20294;-84
2022/06/28 01:10:26;;;;;;;16.52;11.00;;;;;;;10.23;100.00;101931.72;1048041;28;20303;-84
2022/06/28 01:10:58;;;;;;;13.65;9.90;;;;;;;10.20;100.00;101934.72;1049700;28;20306;-84
2022/06/28 01:11:32;;;;;;;12.65;11.10;;;;;;;10.26;100.00;101933.16;1052051;28;20302;-84
2022/06/28 01:12:04;;;;;;;10.35;9.40;;;;;;;10.13;100.00;101939.09;1055864;28;20306;-84
2022/06/28 01:12:37;;;;;;;44.10;11.05;;;;;;;10.04;100.00;101935.72;1048890;28;20448;-85
2022/06/28 01:13:10;;;;;;;50.33;11.68;;;;;;;9.99;100.00;101935.47;1048015;28;20306;-84
2022/06/28 01:13:43;;;;;;;89.82;15.38;;;;;;;10.04;100.00;101929.59;1046673;28;20394;-85
2022/06/28 01:14:15;;;;;;;28.05;10.90;;;;;;;10.02;100.00;101937.75;1053711;27;20858;-84
2022/06/28 01:15:11;;;;;;;162.93;20.58;;;;;;;9.86;100.00;101937.94;1047572;28;20374;-84
2022/06/28 01:15:53;;;;;;;28.73;10.30;;;;;;;9.95;100.00;101928.03;1043716;27;20419;-84
2022/06/28 01:16:26;;;;;;;12.05;10.98;;;;;;;10.14;100.00;101941.63;1057045;27;20297;-84
2022/06/28 01:17:08;;;;;;;118.82;18.02;;;;;;;9.93;100.00;101938.06;1051919;28;20305;-85
2022/06/28 01:17:48;;;;;;;48.08;13.20;;;;;;;9.82;100.00;101932.16;1048050;28;20704;-84
2022/06/28 01:18:38;;;;;;;11.25;10.10;;;;;;;9.82;100.00;101942.00;1050366;28;20047;-84
2022/06/28 01:19:26;;;;;;;14.13;10.05;;;;;;;9.91;100.00;101939.06;1058508;27;20305;-85
2022/06/28 01:20:06;;;;;;;17.33;10.65;;;;;;;9.83;100.00;101938.31;1058153;27;20307;-85
2022/06/28 01:20:58;;;;;;;14.43;12.00;;;;;;;10.02;100.00;101936.94;1043913;28;20288;-84
2022/06/28 01:21:36;;;;;;;11.70;10.70;;;;;;;10.11;100.00;101935.81;1053942;28;20293;-85
2022/06/28 01:22:11;;;;;;;16.45;11.45;;;;;;;10.03;100.00;101939.41;1052204;28;20548;-83
2022/06/28 01:22:42;;;;;;;12.38;9.93;;;;;;;10.01;100.00;101945.94;1056256;28;20308;-84
2022/06/28 01:23:20;;;;;;;14.52;10.82;;;;;;;10.08;100.00;101945.00;1053804;28;20330;-85
2022/06/28 01:23:58;;;;;;;12.65;11.35;;;;;;;10.09;100.00;101943.16;1050725;28;20404;-84
2022/06/28 01:24:42;;;;;;;13.98;12.57;;;;;;;10.24;100.00;101945.84;1051915;28;20909;-84
2022/06/28 01:25:23;;;;;;;13.07;11.65;;;;;;;10.33;100.00;101950.03;1060643;27;20288;-84
2022/06/28 01:25:55;;;;;;;18.17;13.32;;;;;;;10.40;100.00;101946.44;1059742;27;20392;-84
2022/06/28 01:26:35;;;;;;;16.20;14.18;;;;;;;10.50;100.00;101951.47;1051744;28;20301;-84
2022/06/28 01:27:06;;;;;;;15.50;13.82;;;;;;;10.52;100.00;101944.94;1046290;28;20730;-84
2022/06/28 01:27:40;;;;;;;18.73;14.15;;;;;;;10.61;100.00;101947.47;1048154;28;20373;-85
2022/06/28 01:28:12;;;;;;;17.85;14.35;;;;;;;10.62;100.00;101951.78;1041026;28;20300;-84
2022/06/28 01:28:44;;;;;;;18.90;15.60;;;;;;;10.61;100.00;101950.97;1043618;28;20406;-85
2022/06/28 01:29:43;;;;;;;16.02;14.32;;;;;;;10.41;100.00;101956.09;1047608;28;20307;-84
2022/06/28 01:30:26;;;;;;;16.23;13.95;;;;;;;10.42;100.00;101954.25;1053500;28;20317;-84
2022/06/28 01:31:06;;;;;;;76.28;17.77;;;;;;;10.29;100.00;101954.09;1056398;28;20304;-85
2022/06/28 01:31:38;;;;;;;27.77;15.18;;;;;;;10.02;100.00;101956.38;1052061;28;20099;-84
2022/06/28 01:32:10;;;;;;;15.23;13.70;;;;;;;9.98;100.00;101947.13;1056893;27;20297;-83
2022/06/28 01:32:42;;;;;;;16.92;13.93;;;;;;;9.94;100.00;101961.00;1056435;28;20293;-84
2022/06/28 01:33:16;;;;;;;16.55;13.68;;;;;;;10.07;100.00;101956.66;1053009;28;20294;-84
2022/06/28 01:33:50;;;;;;;17.92;14.15;;;;;;;10.16;100.00;101950.25;1051285;28;20800;-84
2022/06/28 01:34:23;;;;;;;13.50;12.20;;;;;;;10.02;100.00;101956.38;1046150;28;20373;-85
2022/06/28 01:34:55;;;;;;;27.85;14.45;;;;;;;9.95;100.00;101957.31;1049985;28;20641;-84
2022/06/28 01:35:30;;;;;;;16.10;14.40;;;;;;;10.00;100.00;101950.44;1052154;28;20313;-84
2022/06/28 01:36:04;;;;;;;194.02;29.88;;;;;;;9.93;100.00;101954.03;1051959;28;20668;-84
2022/06/28 01:36:36;;;;;;;67.05;16.85;;;;;;;9.98;100.00;101957.78;1048393;28;20298;-85
2022/06/28 01:37:10;;;;;;;39.30;14.27;;;;;;;10.04;100.00;101954.38;1051934;27;20409;-84
2022/06/28 01:37:41;;;;;;;67.35;16.58;;;;;;;10.00;100.00;101947.78;1052050;28;20290;-84
2022/06/28 01:38:13;;;;;;;19.80;11.73;;;;;;;10.07;100.00;101955.84;1047557;28;20381;-84
2022/06/28 01:38:46;;;;;;;21.92;13.63;;;;;;;10.12;100.00;101945.44;1043493;28;20306;-83
2022/06/28 01:39:18;;;;;;;22.48;13.93;;;;;;;10.21;100.00;101950.53;1046107;28;20926;-84
2022/06/28 01:39:50;;;;;;;18.90;13.20;;;;;;;10.16;100.00;101958.22;1047274;28;20375;-84
2022/06/28 01:40:24;;;;;;;15.10;12.55;;;;;;;10.24;100.00;101949.34;1047771;28;20907;-84
2022/06/28 01:40:55;;;;;;;38.35;16.20;;;;;;;10.26;100.00;101957.13;1047928;28;20303;-84
2022/06/28 01:41:33;;;;;;;162.88;22.98;;;;;;;10.07;100.00;101951.34;1054068;28;20306;-84
2022/06/28 01:42:35;;;;;;;74.22;16.20;;;;;;;10.10;100.00;101953.63;1040582;28;20805;-84
2022/06/28 01:43:07;;;;;;;268.10;35.22;;;;;;;10.01;100.00;101952.09;1057582;27;20290;-84
2022/06/28 01:43:41;;;;;;;75.78;15.30;;;;;;;10.08;100.00;101954.81;1053433;28;20298;-84
2022/06/28 01:44:13;;;;;;;74.40;16.45;;;;;;;10.15;100.00;101964.56;1052031;28;20313;-85
2022/06/28 01:44:58;;;;;;;24.27;12.32;;;;;;;10.00;100.00;101950.44;1044721;28;20461;-84
2022/06/28 01:45:36;;;;;;;13.50;10.18;;;;;;;10.14;100.00;101946.94;1050432;28;20887;-84
2022/06/28 01:46:07;;;;;;;17.02;10.95;;;;;;;10.24;100.00;101948.50;1051563;28;20294;-84
2022/06/28 01:46:46;;;;;;;22.17;12.35;;;;;;;10.06;100.00;101948.84;1051167;28;20307;-84
2022/06/28 01:47:20;;;;;;;33.50;14.25;;;;;;;10.08;100.00;101952.16;1051603;28;20396;-84
2022/06/28 01:48:06;;;;;;;56.85;12.55;;;;;;;10.20;100.00;101961.34;1047551;28;20298;-84
2022/06/28 01:49:09;;;;;;;53.92;12.15;;;;;;;10.29;100.00;101954.09;1045779;27;20312;-79
2022/06/28 01:49:41;;;;;;;91.35;13.82;;;;;;;10.19;100.00;101960.50;1057341;27;20708;-79
2022/06/28 01:50:13;;;;;;;54.90;13.50;;;;;;;10.15;100.00;101953.91;1055199;28;20339;-79
2022/06/28 01:50:49;;;;;;;65.30;13.68;;;;;;;10.13;100.00;101955.91;1051858;28;20298;-79
2022/06/28 01:51:22;;;;;;;48.25;11.85;;;;;;;10.12;100.00;101959.59;1054492;28;20944;-79
2022/06/28 01:51:54;;;;;;;26.65;11.15;;;;;;;10.14;100.00;101957.59;1056171;28;20290;-79
2022/06/28 01:52:25;;;;;;;25.55;11.93;;;;;;;10.27;100.00;101964.09;1051821;28;20310;-79
2022/06/28 01:52:58;;;;;;;22.75;11.25;;;;;;;10.19;100.00;101957.84;1047830;28;20460;-79
2022/06/28 01:53:41;;;;;;;37.53;11.52;;;;;;;10.07;100.00;101961.16;1049715;28;20309;-79
2022/06/28 01:54:41;;;;;;;13.68;10.75;;;;;;;10.27;100.00;101961.44;1050503;28;20293;-79
2022/06/28 01:55:13;;;;;;;18.58;11.05;;;;;;;10.20;100.00;101956.88;1050858;28;20333;-79
2022/06/28 01:55:48;;;;;;;13.27;11.07;;;;;;;10.26;100.00;101959.78;1048195;28;20400;-79
2022/06/28 01:56:44;;;;;;;11.15;10.07;;;;;;;10.16;100.00;101955.56;1051978;28;20305;-79
2022/06/28 01:57:23;;;;;;;15.18;11.90;;;;;;;10.21;100.00;101961.19;1052017;28;20408;-79
2022/06/28 01:58:01;;;;;;;12.50;11.35;;;;;;;10.25;100.00;101952.81;1052020;28;21603;-79
2022/06/28 01:58:35;;;;;;;13.07;11.98;;;;;;;10.43;100.00;101963.91;1046033;28;20303;-79
2022/06/28 01:59:08;;;;;;;10.40;8.77;;;;;;;10.46;100.00;101956.34;1050862;28;20298;-79
2022/06/28 02:00:03;;;;;;;11.88;8.95;;;;;;;10.46;100.00;101958.19;1051031;28;20313;-79
2022/06/28 02:00:47;;;;;;;39.90;10.73;;;;;;;10.26;100.00;101954.47;1060692;27;20288;-79
2022/06/28 02:01:18;;;;;;;25.17;10.05;;;;;;;10.18;100.00;101956.19;1057017;27;20308;-79
2022/06/28 02:01:51;;;;;;;11.65;9.52;;;;;;;10.23;100.00;101960.16;1051532;28;20343;-79
2022/06/28 02:02:26;;;;;;;11.48;10.30;;;;;;;10.36;100.00;101955.00;1051933;28;20314;-79
2022/06/28 02:03:16;;;;;;;13.43;11.65;;;;;;;10.39;100.00;101957.28;1057326;27;20416;-79
2022/06/28 02:04:25;;;;;;;12.85;11.55;;;;;;;10.48;100.00;101956.16;1063532;27;20407;-79
2022/06/28 02:05:02;;;;;;;13.13;11.80;;;;;;;10.57;100.00;101956.88;1059122;27;20304;-79
2022/06/28 02:05:37;;;;;;;13.65;12.40;;;;;;;10.56;100.00;101961.38;1056016;28;20384;-79
2022/06/28 02:06:09;;;;;;;14.90;12.85;;;;;;;10.52;100.00;101960.09;1047886;28;20665;-79
2022/06/28 02:06:44;;;;;;;292.48;36.15;;;;;;;10.14;100.00;101962.09;1043634;28;20299;-79
2022/06/28 02:07:16;;;;;;;152.68;25.02;;;;;;;10.01;100.00;101954.75;1043314;28;20310;-79
2022/06/28 02:07:49;;;;;;;12.68;11.57;;;;;;;10.24;100.00;101961.81;1045034;28;20315;-79
2022/06/28 02:08:22;;;;;;;13.98;10.93;;;;;;;10.41;100.00;101963.25;1047858;28;20671;-79
2022/06/28 02:09:02;;;;;;;12.45;11.35;;;;;;;10.56;100.00;101965.88;1048576;28;20307;-84
2022/06/28 02:09:44;;;;;;;18.20;12.50;;;;;;;10.48;100.00;101958.84;1050406;28;20052;-85
2022/06/28 02:10:19;;;;;;;13.23;11.93;;;;;;;10.58;100.00;101961.19;1051902;28;20306;-84
2022/06/28 02:10:51;;;;;;;13.60;12.23;;;;;;;10.63;100.00;101958.78;1050302;28;20312;-85
2022/06/28 02:11:23;;;;;;;13.82;12.63;;;;;;;10.56;100.00;101964.03;1051793;27;20412;-85
2022/06/28 02:11:57;;;;;;;12.48;11.35;;;;;;;10.32;100.00;101961.72;1051363;28;20389;-85
2022/06/28 02:12:33;;;;;;;16.95;12.07;;;;;;;10.26;100.00;101967.78;1043508;28;20762;-85
2022/06/28 02:13:05;;;;;;;12.15;10.93;;;;;;;10.24;100.00;101967.16;1043851;28;20307;-85
2022/06/28 02:13:37;;;;;;;16.02;11.90;;;;;;;10.10;100.00;101964.28;1045280;28;20291;-85
2022/06/28 02:14:09;;;;;;;18.55;12.15;;;;;;;10.13;100.00;101971.88;1046825;28;20308;-85
2022/06/28 02:14:43;;;;;;;53.42;12.20;;;;;;;10.20;100.00;101972.84;1044552;28;20303;-85
2022/06/28 02:15:15;;;;;;;29.75;12.23;;;;;;;10.30;100.00;101977.03;1047793;28;20577;-85
2022/06/28 02:15:47;;;;;;;20.33;11.55;;;;;;;10.22;100.00;101977.97;1051959;28;20302;-85
2022/06/28 02:16:21;;;;;;;18.48;9.45;;;;;;;10.18;100.00;101969.50;1048818;28;20295;-85
2022/06/28 02:16:54;;;;;;;30.40;8.77;;;;;;;10.21;100.00;101974.50;1049453;28;20302;-84
2022/06/28 02:17:26;;;;;;;29.15;10.85;;;;;;;10.24;100.00;101975.13;1044549;28;20379;-84
2022/06/28 02:17:59;;;;;;;20.52;9.85;;;;;;;10.27;100.00;101972.91;1047744;28;20368;-85
2022/06/28 02:18:31;;;;;;;19.67;10.15;;;;;;;10.20;100.00;101980.84;1048453;28;21226;-85
2022/06/28 02:19:06;;;;;;;11.20;10.25;;;;;;;10.01;100.00;101973.38;1046745;28;20299;-85
2022/06/28 02:19:38;;;;;;;13.95;10.45;;;;;;;9.90;100.00;101971.19;1048887;28;20302;-85
2022/06/28 02:20:14;;;;;;;11.02;9.95;;;;;;;9.91;100.00;101971.00;1049697;28;20874;-85
2022/06/28 02:20:47;;;;;;;98.07;16.33;;;;;;;10.11;100.00;101976.56;1054808;27;20306;-84
2022/06/28 02:21:19;;;;;;;19.48;12.95;;;;;;;10.11;100.00;101976.56;1056309;28;20316;-85
2022/06/28 02:21:52;;;;;;;54.50;12.88;;;;;;;10.08;100.00;101968.13;1051845;28;20301;-85
2022/06/28 02:22:28;;;;;;;11.98;10.43;;;;;;;10.16;100.00;101974.19;1051532;28;20471;-85
2022/06/28 02:22:59;;;;;;;11.32;10.38;;;;;;;10.21;100.00;101979.81;1050717;28;20440;-85
2022/06/28 02:23:31;;;;;;;18.80;12.05;;;;;;;9.99;100.00;101979.91;1048561;28;20509;-85
2022/06/28 02:24:04;;;;;;;18.80;13.13;;;;;;;10.12;100.00;101980.06;1052300;28;20324;-85
2022/06/28 02:24:36;;;;;;;24.27;13.50;;;;;;;10.06;100.00;101983.47;1047875;28;20896;-84
2022/06/28 02:25:07;;;;;;;16.13;12.48;;;;;;;10.07;100.00;101982.44;1048374;28;20313;-84
2022/06/28 02:25:39;;;;;;;13.20;11.95;;;;;;;10.08;100.00;101982.25;1048334;28;20317;-85
2022/06/28 02:26:13;;;;;;;13.38;12.18;;;;;;;10.09;100.00;101975.94;1048147;28;20559;-85
2022/06/28 02:26:45;;;;;;;14.48;13.18;;;;;;;10.05;100.00;101979.97;1048671;28;20357;-85
2022/06/28 02:27:16;;;;;;;14.85;12.52;;;;;;;9.83;100.00;101981.72;1048006;28;20771;-85
2022/06/28 02:27:48;;;;;;;12.70;11.52;;;;;;;9.80;100.00;101987.41;1040790;28;20311;-84
2022/06/28 02:28:22;;;;;;;17.85;11.60;;;;;;;9.95;100.00;101982.09;1044087;28;20343;-84
2022/06/28 02:28:55;;;;;;;12.43;11.32;;;;;;;10.02;100.00;101977.69;1044760;28;20761;-85
2022/06/28 02:29:28;;;;;;;14.93;12.68;;;;;;;9.90;100.00;101982.66;1047754;28;20310;-84
2022/06/28 02:29:59;;;;;;;14.60;11.45;;;;;;;9.79;100.00;101984.94;1052435;28;20305;-85
2022/06/28 02:30:31;;;;;;;17.63;11.77;;;;;;;9.58;100.00;101983.81;1048446;28;20299;-85
2022/06/28 02:31:14;;;;;;;13.80;12.50;;;;;;;9.67;100.00;101981.09;1045466;28;20698;-85
2022/06/28 02:31:46;;;;;;;14.48;11.95;;;;;;;9.63;100.00;101990.44;1048362;28;20305;-85
2022/06/28 02:32:18;;;;;;;38.95;13.07;;;;;;;9.59;100.00;101988.16;1051753;28;20772;-85
2022/06/28 02:32:49;;;;;;;13.18;11.95;;;;;;;9.62;100.00;101980.81;1049487;28;20369;-85
2022/06/28 02:33:21;;;;;;;13.05;11.70;;;;;;;9.71;100.00;101982.38;1045034;28;20303;-85
2022/06/28 02:33:58;;;;;;;13.70;12.48;;;;;;;9.66;100.00;101990.91;1044878;28;20426;-85
2022/06/28 02:40:23;;;;;;;170.18;22.42;;;;;;;9.58;100.00;101991.78;1060077;27;20333;-86
2022/06/28 02:40:54;;;;;;;13.88;12.48;;;;;;;9.63;100.00;101987.78;1063136;27;20304;-86
2022/06/28 02:41:26;;;;;;;13.70;12.27;;;;;;;9.50;100.00;101991.88;1060458;27;20725;-85
2022/06/28 02:41:57;;;;;;;254.07;30.10;;;;;;;9.47;100.00;102000.22;1057824;27;20387;-85